Time;durP1;ratioP1;P1;durP2;ratioP2;P2;SDS_P1;SDS_P2;PMS_P1;PMS_P2;Temp;Humidity;BMP_temperature;BMP_pressure;BME280_temperature;BME280_humidity;BME280_pressure;Samples;Min_cycle;Max_cycle;Signal;HPM_P1;HPM_P2
2021/04/21 00:02:04;;;;;;;5.10;4.17;;;;;;;;;;5008059;28;20490;-66
2021/04/21 00:04:31;;;;;;;7.23;4.10;;;;;;;;;;4995459;28;20519;-67
2021/04/21 00:06:58;;;;;;;4.77;4.33;;;;;;;;;;5009686;28;21000;-66
2021/04/21 00:09:25;;;;;;;5.60;4.47;;;;;;;;;;5001262;28;20449;-66
2021/04/21 00:11:52;;;;;;;4.83;4.37;;;;;;;;;;5002996;28;20446;-64
2021/04/21 00:14:21;;;;;;;4.13;3.70;;;;;;;;;;4991958;28;20446;-67
2021/04/21 00:16:49;;;;;;;4.93;4.43;;;;;;;;;;4998593;28;20976;-65
2021/04/21 00:19:18;;;;;;;5.07;4.20;;;;;;;;;;4986965;28;21079;-67
2021/04/21 00:21:45;;;;;;;5.90;4.47;;;;;;;;;;4999231;28;20489;-67
2021/04/21 00:24:12;;;;;;;5.30;4.80;;;;;;;;;;4998214;28;20954;-66
2021/04/21 00:26:40;;;;;;;5.40;4.90;;;;;;;;;;4991600;28;20458;-67
2021/04/21 00:29:06;;;;;;;4.90;4.13;;;;;;;;;;4991610;28;20504;-66
2021/04/21 00:31:34;;;;;;;6.03;4.77;;;;;;;;;;4989799;28;20450;-67
2021/04/21 00:34:02;;;;;;;5.50;5.00;;;;;;;;;;4991638;28;21582;-67
2021/04/21 00:36:30;;;;;;;4.90;4.40;;;;;;;;;;4996417;28;20879;-67
2021/04/21 00:38:57;;;;;;;4.73;4.23;;;;;;;;;;4994217;28;20490;-67
2021/04/21 00:41:30;;;;;;;7.27;4.33;;;;;;;;;;4996102;28;20822;-67
2021/04/21 00:44:01;;;;;;;5.50;4.43;;;;;;;;;;5001571;28;20458;-67
2021/04/21 00:46:32;;;;;;;5.47;4.60;;;;;;;;;;5003298;28;20468;-64
2021/04/21 00:49:04;;;;;;;5.10;4.53;;;;;;;;;;5000088;28;20501;-67
2021/04/21 00:51:37;;;;;;;7.37;4.67;;;;;;;;;;4995589;28;20541;-67
2021/04/21 00:54:07;;;;;;;5.30;4.80;;;;;;;;;;4998046;28;20964;-67
2021/04/21 00:56:38;;;;;;;5.23;4.73;;;;;;;;;;5004671;28;20454;-67
2021/04/21 00:59:09;;;;;;;5.53;5.03;;;;;;;;;;4989682;28;20469;-67
2021/04/21 01:01:37;;;;;;;5.63;4.80;;;;;;;;;;4996274;28;20478;-67
2021/04/21 01:04:05;;;;;;;4.53;4.13;;;;;;;;;;4993728;28;20469;-67
2021/04/21 01:06:34;;;;;;;7.43;4.30;;;;;;;;;;4999454;28;20465;-67
2021/04/21 01:09:02;;;;;;;5.70;4.90;;;;;;;;;;4998661;28;20481;-67
2021/04/21 01:11:31;;;;;;;4.70;4.30;;;;;;;;;;4994286;28;20961;-67
2021/04/21 01:14:00;;;;;;;5.13;4.63;;;;;;;;;;5000017;28;20458;-67
2021/04/21 01:16:28;;;;;;;5.30;4.50;;;;;;;;;;4998939;28;20476;-68
2021/04/21 01:18:57;;;;;;;5.73;4.53;;;;;;;;;;5003035;28;20497;-68
2021/04/21 01:21:27;;;;;;;5.20;4.70;;;;;;;;;;4999493;28;20499;-66
2021/04/21 01:24:08;;;;;;;6.00;4.23;;;;;;;;;;4999914;28;20505;-67
2021/04/21 01:26:45;;;;;;;5.20;4.70;;;;;;;;;;4988774;28;20450;-67
2021/04/21 01:29:14;;;;;;;5.70;5.20;;;;;;;;;;5002073;28;20465;-66
2021/04/21 01:31:41;;;;;;;5.33;4.83;;;;;;;;;;5006462;28;20489;-66
2021/04/21 01:34:10;;;;;;;5.83;4.50;;;;;;;;;;4991696;28;20465;-66
2021/04/21 01:36:38;;;;;;;4.93;4.43;;;;;;;;;;4996774;28;20501;-67
2021/04/21 01:39:05;;;;;;;4.80;4.23;;;;;;;;;;4984150;28;20455;-66
2021/04/21 01:41:35;;;;;;;4.40;3.77;;;;;;;;;;4990183;28;20490;-67
2021/04/21 01:44:03;;;;;;;5.93;4.73;;;;;;;;;;4994816;28;20454;-66
2021/04/21 01:46:32;;;;;;;5.27;4.50;;;;;;;;;;4998281;28;20462;-67
2021/04/21 01:49:02;;;;;;;5.73;5.10;;;;;;;;;;4997854;28;20521;-65
2021/04/21 01:51:32;;;;;;;5.13;4.63;;;;;;;;;;4994741;28;21208;-67
2021/04/21 01:54:04;;;;;;;4.70;4.30;;;;;;;;;;4993728;28;20517;-65
2021/04/21 01:56:33;;;;;;;5.23;4.50;;;;;;;;;;4997459;28;20450;-65
2021/04/21 01:59:02;;;;;;;5.20;4.73;;;;;;;;;;4993156;28;20498;-65
2021/04/21 02:01:34;;;;;;;5.90;5.03;;;;;;;;;;4993750;28;20501;-66
2021/04/21 02:04:03;;;;;;;6.63;4.60;;;;;;;;;;4993588;28;20977;-68
2021/04/21 02:06:37;;;;;;;5.23;4.70;;;;;;;;;;4995353;28;20467;-67
2021/04/21 02:09:10;;;;;;;5.57;4.53;;;;;;;;;;4994715;28;20469;-65
2021/04/21 02:11:38;;;;;;;5.50;5.00;;;;;;;;;;5013993;28;20856;-66
2021/04/21 02:14:12;;;;;;;5.47;4.80;;;;;;;;;;4993877;28;20466;-68
2021/04/21 02:16:46;;;;;;;5.17;4.60;;;;;;;;;;4983627;28;20528;-65
2021/04/21 02:19:35;;;;;;;6.60;4.67;;;;;;;;;;4993157;28;20458;-68
2021/04/21 02:22:05;;;;;;;5.23;4.73;;;;;;;;;;4994262;28;20521;-66
2021/04/21 02:24:40;;;;;;;7.23;5.40;;;;;;;;;;4995897;28;20474;-65
2021/04/21 02:27:11;;;;;;;5.53;5.03;;;;;;;;;;5001490;28;20505;-66
2021/04/21 02:29:40;;;;;;;5.27;4.77;;;;;;;;;;4992902;28;20478;-66
2021/04/21 02:32:12;;;;;;;5.73;4.87;;;;;;;;;;5003557;28;20459;-67
2021/04/21 02:34:42;;;;;;;4.77;4.37;;;;;;;;;;5003838;28;20484;-65
2021/04/21 02:37:11;;;;;;;4.93;4.53;;;;;;;;;;5003352;28;20486;-66
2021/04/21 02:39:42;;;;;;;4.73;4.27;;;;;;;;;;4992113;28;20482;-68
2021/04/21 02:42:11;;;;;;;8.70;4.70;;;;;;;;;;4996190;28;20473;-66
2021/04/21 02:44:45;;;;;;;4.83;4.43;;;;;;;;;;4975194;28;20955;-65
2021/04/21 02:47:19;;;;;;;4.83;4.40;;;;;;;;;;4991561;28;20521;-66
2021/04/21 02:49:48;;;;;;;4.97;4.10;;;;;;;;;;4989571;28;20445;-65
2021/04/21 02:52:20;;;;;;;5.70;4.70;;;;;;;;;;5004277;28;20473;-65
2021/04/21 02:54:51;;;;;;;5.63;5.13;;;;;;;;;;5000511;28;20511;-66
2021/04/21 02:57:21;;;;;;;6.40;4.70;;;;;;;;;;5002346;28;20482;-65
2021/04/21 02:59:51;;;;;;;5.13;3.90;;;;;;;;;;4998723;28;20461;-68
2021/04/21 03:02:22;;;;;;;5.33;4.67;;;;;;;;;;5001385;28;20501;-68
2021/04/21 03:04:51;;;;;;;6.70;4.57;;;;;;;;;;4999337;28;20464;-66
2021/04/21 03:07:19;;;;;;;5.80;4.87;;;;;;;;;;5003679;28;20488;-68
2021/04/21 03:09:48;;;;;;;6.30;4.80;;;;;;;;;;5005706;28;20445;-68
2021/04/21 03:12:17;;;;;;;5.20;4.57;;;;;;;;;;5006408;28;20525;-66
2021/04/21 03:14:47;;;;;;;5.53;4.63;;;;;;;;;;5007128;28;20501;-66
2021/04/21 03:17:13;;;;;;;6.03;4.77;;;;;;;;;;4995654;28;20501;-66
2021/04/21 03:19:47;;;;;;;4.60;4.20;;;;;;;;;;5012368;28;20441;-66
2021/04/21 03:22:15;;;;;;;5.57;4.83;;;;;;;;;;5004095;28;20999;-66
2021/04/21 03:24:45;;;;;;;7.60;5.50;;;;;;;;;;5007231;28;20453;-66
2021/04/21 03:27:13;;;;;;;4.87;4.47;;;;;;;;;;5004357;28;20486;-65
2021/04/21 03:29:41;;;;;;;6.97;5.10;;;;;;;;;;4991222;28;20549;-66
2021/04/21 03:32:11;;;;;;;5.13;4.70;;;;;;;;;;4987301;28;20466;-66
2021/04/21 03:34:39;;;;;;;6.30;4.90;;;;;;;;;;5003632;28;20507;-66
2021/04/21 03:37:13;;;;;;;5.70;4.40;;;;;;;;;;4994767;28;20482;-65
2021/04/21 03:39:40;;;;;;;5.60;4.70;;;;;;;;;;4990984;28;20476;-66
2021/04/21 03:42:06;;;;;;;6.10;4.80;;;;;;;;;;4995925;28;20544;-65
2021/04/21 03:44:33;;;;;;;5.43;4.97;;;;;;;;;;5007227;28;20461;-67
2021/04/21 03:47:00;;;;;;;5.83;4.50;;;;;;;;;;4990315;28;21036;-66
2021/04/21 03:49:26;;;;;;;5.20;4.70;;;;;;;;;;4991709;28;20467;-65
2021/04/21 03:51:53;;;;;;;4.70;4.30;;;;;;;;;;4991268;28;20458;-67
2021/04/21 03:54:21;;;;;;;4.63;4.23;;;;;;;;;;4992902;28;20553;-66
2021/04/21 03:56:48;;;;;;;5.77;5.07;;;;;;;;;;4991613;28;20466;-65
2021/04/21 03:59:16;;;;;;;5.47;4.87;;;;;;;;;;4977497;28;20516;-64
2021/04/21 04:01:43;;;;;;;4.70;4.30;;;;;;;;;;4993827;28;20525;-65
2021/04/21 04:04:10;;;;;;;5.33;4.80;;;;;;;;;;4998943;28;20868;-66
2021/04/21 04:06:40;;;;;;;5.43;4.93;;;;;;;;;;4991663;28;20962;-66
2021/04/21 04:09:07;;;;;;;5.40;4.90;;;;;;;;;;5006109;28;20826;-64
2021/04/21 04:11:35;;;;;;;5.60;5.10;;;;;;;;;;4972744;28;20889;-66
2021/04/21 04:14:03;;;;;;;5.33;4.73;;;;;;;;;;4983740;28;20502;-68
2021/04/21 04:16:31;;;;;;;11.47;10.40;;;;;;;;;;4991271;28;20466;-64
2021/04/21 04:18:58;;;;;;;13.43;12.23;;;;;;;;;;4987811;28;20509;-67
2021/04/21 04:21:28;;;;;;;14.53;12.97;;;;;;;;;;4989365;28;20570;-64
2021/04/21 04:23:57;;;;;;;14.63;13.37;;;;;;;;;;5005723;28;20442;-64
2021/04/21 04:26:25;;;;;;;14.10;12.80;;;;;;;;;;5005863;28;20503;-67
2021/04/21 04:28:54;;;;;;;14.67;13.23;;;;;;;;;;4995327;28;20496;-64
2021/04/21 04:31:21;;;;;;;14.13;12.93;;;;;;;;;;5001140;28;20454;-66
2021/04/21 04:33:49;;;;;;;15.70;14.20;;;;;;;;;;4990282;28;20589;-64
2021/04/21 04:36:16;;;;;;;14.90;13.40;;;;;;;;;;4992346;28;20462;-68
2021/04/21 04:38:43;;;;;;;14.20;12.90;;;;;;;;;;4979566;28;20466;-65
2021/04/21 04:41:09;;;;;;;14.67;13.17;;;;;;;;;;4994594;28;20496;-64
2021/04/21 04:43:36;;;;;;;14.07;12.73;;;;;;;;;;4994121;28;20962;-67
2021/04/21 04:46:05;;;;;;;15.30;13.90;;;;;;;;;;4997896;28;20478;-63
2021/04/21 04:48:36;;;;;;;14.97;13.57;;;;;;;;;;4993935;28;20490;-63
2021/04/21 04:51:06;;;;;;;14.83;13.47;;;;;;;;;;5003675;28;20479;-64
2021/04/21 04:53:35;;;;;;;14.70;13.30;;;;;;;;;;4995979;28;20488;-64
2021/04/21 04:56:02;;;;;;;14.77;13.57;;;;;;;;;;4989461;28;20466;-64
2021/04/21 04:58:29;;;;;;;15.43;14.07;;;;;;;;;;4998079;28;20490;-64
2021/04/21 05:00:59;;;;;;;16.87;15.33;;;;;;;;;;4994389;28;20481;-64
2021/04/21 05:03:30;;;;;;;16.80;15.10;;;;;;;;;;5007978;28;20476;-63
2021/04/21 05:05:58;;;;;;;16.63;14.93;;;;;;;;;;5014970;28;20456;-64
2021/04/21 05:08:26;;;;;;;15.93;14.53;;;;;;;;;;4996013;28;20570;-63
2021/04/21 05:10:55;;;;;;;17.50;15.73;;;;;;;;;;4995252;28;20804;-65
2021/04/21 05:13:23;;;;;;;16.20;14.70;;;;;;;;;;4992502;28;20520;-64
2021/04/21 05:16:07;;;;;;;17.33;15.83;;;;;;;;;;4994419;28;20446;-65
2021/04/21 05:18:49;;;;;;;18.07;16.37;;;;;;;;;;5023847;22;20509;-62
2021/04/21 05:21:38;;;;;;;16.53;14.90;;;;;;;;;;5012545;28;20985;-63
2021/04/21 05:24:23;;;;;;;17.80;16.00;;;;;;;;;;5012536;28;20515;-62
2021/04/21 05:27:05;;;;;;;16.70;15.10;;;;;;;;;;5012479;28;20465;-62
2021/04/21 05:29:41;;;;;;;16.00;14.53;;;;;;;;;;5013471;28;20488;-62
2021/04/21 05:32:26;;;;;;;19.47;16.37;;;;;;;;;;5013340;28;20542;-62
2021/04/21 05:35:07;;;;;;;17.03;15.50;;;;;;;;;;5013847;28;20462;-62
2021/04/21 05:37:53;;;;;;;17.93;16.03;;;;;;;;;;5011041;28;20520;-62
2021/04/21 05:40:38;;;;;;;16.17;14.53;;;;;;;;;;5013834;28;20454;-62
2021/04/21 05:43:23;;;;;;;17.17;15.20;;;;;;;;;;5014062;28;20543;-62
2021/04/21 05:46:03;;;;;;;16.07;14.50;;;;;;;;;;5012731;28;20499;-62
2021/04/21 05:49:01;;;;;;;16.17;14.63;;;;;;;;;;5012771;28;20489;-62
2021/04/21 05:51:44;;;;;;;14.87;13.57;;;;;;;;;;5012392;28;20579;-62
2021/04/21 05:54:26;;;;;;;17.13;15.43;;;;;;;;;;5014344;28;20438;-62
2021/04/21 05:57:10;;;;;;;15.10;13.80;;;;;;;;;;5013182;28;20820;-63
2021/04/21 05:59:52;;;;;;;15.10;13.63;;;;;;;;;;5012822;28;20493;-63
2021/04/21 06:02:19;;;;;;;16.07;14.57;;;;;;;;;;5014034;28;20482;-62
2021/04/21 06:04:46;;;;;;;17.43;15.20;;;;;;;;;;5012199;28;20461;-62
2021/04/21 06:07:14;;;;;;;15.87;14.27;;;;;;;;;;5013093;28;20960;-63
2021/04/21 06:09:40;;;;;;;14.37;12.97;;;;;;;;;;5012994;28;20482;-63
2021/04/21 06:12:08;;;;;;;15.07;13.67;;;;;;;;;;5013878;28;20499;-63
2021/04/21 06:14:34;;;;;;;13.97;12.67;;;;;;;;;;5012987;28;20489;-62
2021/04/21 06:17:01;;;;;;;11.37;4.60;;;;;;;;;;4993638;28;20473;-60
2021/04/21 06:19:29;;;;;;;8.30;4.03;;;;;;;;;;5007686;28;20485;-59
2021/04/21 06:21:55;;;;;;;4.20;3.80;;;;;;;;;;5012585;28;20480;-60
2021/04/21 06:24:24;;;;;;;6.90;5.10;;;;;;;;;;5011257;28;20520;-60
2021/04/21 06:26:51;;;;;;;8.17;5.50;;;;;;;;;;5013341;28;20540;-59
2021/04/21 06:29:17;;;;;;;8.23;7.43;;;;;;;;;;5005752;28;20491;-60
2021/04/21 06:31:46;;;;;;;12.10;9.50;;;;;;;;;;5012615;28;20541;-60
2021/04/21 06:34:14;;;;;;;5.23;4.67;;;;;;;;;;5012321;28;20611;-60
2021/04/21 06:36:44;;;;;;;4.87;4.37;;;;;;;;;;5011528;28;20491;-60
2021/04/21 06:39:12;;;;;;;5.17;4.77;;;;;;;;;;5010083;28;20863;-60
2021/04/21 06:41:39;;;;;;;7.83;7.03;;;;;;;;;;5012467;28;20523;-60
2021/04/21 06:44:05;;;;;;;5.43;5.03;;;;;;;;;;5012145;28;20878;-60
2021/04/21 06:46:32;;;;;;;7.87;7.07;;;;;;;;;;5012307;28;20462;-59
2021/04/21 06:49:00;;;;;;;6.17;5.37;;;;;;;;;;5012400;28;20501;-60
2021/04/21 06:51:28;;;;;;;5.30;4.80;;;;;;;;;;5003110;28;20467;-60
2021/04/21 06:53:56;;;;;;;6.10;5.50;;;;;;;;;;4999463;28;20478;-60
2021/04/21 06:56:27;;;;;;;6.53;5.90;;;;;;;;;;5012243;28;20473;-60
2021/04/21 06:58:54;;;;;;;7.37;4.47;;;;;;;;;;5010313;28;20908;-59
2021/04/21 07:01:25;;;;;;;5.10;4.60;;;;;;;;;;5013177;28;20480;-60
2021/04/21 07:03:53;;;;;;;7.00;4.57;;;;;;;;;;5001681;28;20471;-60
2021/04/21 07:06:19;;;;;;;5.33;4.33;;;;;;;;;;5016243;28;20479;-60
2021/04/21 07:08:46;;;;;;;4.83;4.20;;;;;;;;;;5016921;28;21031;-60
2021/04/21 07:11:13;;;;;;;4.77;4.27;;;;;;;;;;5011583;28;20457;-59
2021/04/21 07:13:43;;;;;;;6.13;4.50;;;;;;;;;;5012541;28;20959;-59
2021/04/21 07:16:12;;;;;;;5.30;4.80;;;;;;;;;;5000980;28;20458;-59
2021/04/21 07:18:39;;;;;;;6.97;6.37;;;;;;;;;;5006891;28;20858;-60
2021/04/21 07:21:07;;;;;;;5.50;4.57;;;;;;;;;;4993024;28;20557;-60
2021/04/21 07:23:34;;;;;;;5.60;4.30;;;;;;;;;;5000195;28;20460;-60
2021/04/21 07:26:01;;;;;;;5.40;4.90;;;;;;;;;;5006942;28;20476;-60
2021/04/21 07:28:29;;;;;;;4.37;3.97;;;;;;;;;;5011270;28;20474;-60
2021/04/21 07:30:56;;;;;;;9.37;5.53;;;;;;;;;;5012313;28;20450;-60
2021/04/21 07:33:38;;;;;;;7.07;5.20;;;;;;;;;;5006913;28;20459;-60
2021/04/21 07:36:09;;;;;;;8.03;4.20;;;;;;;;;;5005325;28;20469;-61
2021/04/21 07:38:39;;;;;;;8.53;6.77;;;;;;;;;;5008680;28;21034;-61
2021/04/21 07:41:06;;;;;;;6.20;4.80;;;;;;;;;;5006422;28;20477;-60
2021/04/21 07:43:38;;;;;;;7.20;5.03;;;;;;;;;;5007360;28;20476;-63
2021/04/21 07:46:05;;;;;;;10.13;8.23;;;;;;;;;;5011287;28;20472;-61
2021/04/21 07:48:42;;;;;;;4.67;4.10;;;;;;;;;;5002579;28;21057;-61
2021/04/21 07:51:33;;;;;;;3.67;3.30;;;;;;;;;;4998477;28;20446;-61
2021/04/21 07:54:02;;;;;;;7.97;6.10;;;;;;;;;;5002147;28;20965;-61
2021/04/21 07:56:34;;;;;;;4.63;3.83;;;;;;;;;;5010960;28;20449;-61
2021/04/21 07:59:13;;;;;;;6.50;5.90;;;;;;;;;;5009841;28;20465;-61
2021/04/21 08:01:40;;;;;;;5.77;5.20;;;;;;;;;;4997710;28;20500;-61
2021/04/21 08:04:20;;;;;;;8.20;7.40;;;;;;;;;;5001977;28;20450;-61
2021/04/21 08:06:48;;;;;;;10.60;9.63;;;;;;;;;;5008281;28;20535;-60
2021/04/21 08:09:15;;;;;;;6.60;5.87;;;;;;;;;;5011235;28;20478;-61
2021/04/21 08:11:41;;;;;;;6.13;5.53;;;;;;;;;;5011169;28;20441;-59
2021/04/21 08:14:08;;;;;;;9.30;7.93;;;;;;;;;;5009974;28;20450;-62
2021/04/21 08:16:36;;;;;;;8.43;4.53;;;;;;;;;;5003454;28;20986;-63
2021/04/21 08:19:13;;;;;;;19.13;5.60;;;;;;;;;;5001452;28;20482;-62
2021/04/21 08:21:41;;;;;;;12.93;11.70;;;;;;;;;;5019556;28;20554;-62
2021/04/21 08:24:09;;;;;;;9.90;7.13;;;;;;;;;;5015660;28;20529;-62
2021/04/21 08:26:36;;;;;;;12.20;11.00;;;;;;;;;;5007377;28;20461;-62
2021/04/21 08:29:03;;;;;;;10.80;9.57;;;;;;;;;;5015206;28;20481;-63
2021/04/21 08:31:31;;;;;;;8.50;7.63;;;;;;;;;;5015495;28;20449;-63
2021/04/21 08:33:58;;;;;;;12.87;11.63;;;;;;;;;;5013632;28;20563;-62
2021/04/21 08:36:25;;;;;;;9.10;5.53;;;;;;;;;;5008042;28;20942;-62
2021/04/21 08:38:51;;;;;;;8.60;7.80;;;;;;;;;;5010444;28;20487;-63
2021/04/21 08:41:19;;;;;;;9.27;8.37;;;;;;;;;;5015706;28;20543;-62
2021/04/21 08:43:47;;;;;;;12.83;11.60;;;;;;;;;;5015067;28;20461;-62
2021/04/21 08:46:13;;;;;;;9.47;7.83;;;;;;;;;;5015393;28;20460;-62
2021/04/21 08:48:41;;;;;;;8.30;7.50;;;;;;;;;;5012302;28;20481;-63
2021/04/21 08:51:09;;;;;;;17.63;16.13;;;;;;;;;;5002621;28;20454;-62
2021/04/21 08:53:36;;;;;;;15.10;13.73;;;;;;;;;;5007606;28;20450;-62
2021/04/21 08:56:05;;;;;;;13.00;9.95;;;;;;;;;;5014548;28;20465;-62
2021/04/21 08:58:32;;;;;;;9.63;8.80;;;;;;;;;;5015338;28;20272;-62
2021/04/21 09:01:00;;;;;;;16.33;14.73;;;;;;;;;;5015154;28;20484;-63
2021/04/21 09:03:27;;;;;;;9.50;6.57;;;;;;;;;;5014468;28;20462;-63
2021/04/21 09:05:53;;;;;;;14.40;9.60;;;;;;;;;;5014725;28;20507;-62
2021/04/21 09:08:21;;;;;;;17.53;12.07;;;;;;;;;;5014427;28;20476;-63
2021/04/21 09:10:48;;;;;;;10.63;8.20;;;;;;;;;;5014980;28;20452;-63
2021/04/21 09:13:15;;;;;;;19.10;10.33;;;;;;;;;;5013840;28;20449;-63
2021/04/21 09:15:42;;;;;;;14.43;11.50;;;;;;;;;;5000228;28;20807;-63
2021/04/21 09:18:09;;;;;;;24.40;22.20;;;;;;;;;;4999301;28;20484;-64
2021/04/21 09:20:43;;;;;;;27.43;25.00;;;;;;;;;;5015180;28;20477;-64
2021/04/21 09:23:12;;;;;;;30.67;27.67;;;;;;;;;;5010654;28;20435;-62
2021/04/21 09:25:40;;;;;;;27.77;25.20;;;;;;;;;;4997122;28;20477;-61
2021/04/21 09:28:08;;;;;;;29.20;26.40;;;;;;;;;;5014080;28;20556;-61
2021/04/21 09:30:36;;;;;;;30.03;26.97;;;;;;;;;;5014698;28;20452;-61
2021/04/21 09:33:03;;;;;;;26.63;24.17;;;;;;;;;;5014531;28;20454;-62
2021/04/21 09:35:32;;;;;;;28.00;25.50;;;;;;;;;;5014016;28;20548;-62
2021/04/21 09:38:04;;;;;;;25.67;23.17;;;;;;;;;;5014256;28;20484;-62
2021/04/21 09:40:34;;;;;;;27.40;24.30;;;;;;;;;;5014507;28;20480;-61
2021/04/21 09:43:01;;;;;;;27.70;24.87;;;;;;;;;;5014033;28;20477;-63
2021/04/21 09:45:39;;;;;;;26.73;24.23;;;;;;;;;;4994801;28;20450;-63
2021/04/21 09:48:06;;;;;;;25.17;22.70;;;;;;;;;;5011845;28;20477;-63
2021/04/21 09:50:33;;;;;;;23.50;21.30;;;;;;;;;;5004026;28;20452;-63
2021/04/21 09:53:00;;;;;;;23.87;21.53;;;;;;;;;;5014464;28;20448;-63
2021/04/21 09:55:30;;;;;;;24.30;21.90;;;;;;;;;;5013243;28;20971;-64
2021/04/21 09:57:57;;;;;;;23.00;20.40;;;;;;;;;;5014369;28;20477;-64
2021/04/21 10:00:26;;;;;;;22.13;19.93;;;;;;;;;;5013108;28;20459;-64
2021/04/21 10:02:52;;;;;;;21.70;19.70;;;;;;;;;;4996293;28;20512;-64
2021/04/21 10:05:24;;;;;;;20.50;18.20;;;;;;;;;;5004620;28;20456;-64
2021/04/21 10:08:05;;;;;;;19.83;17.87;;;;;;;;;;5013996;28;20520;-64
2021/04/21 10:10:32;;;;;;;20.53;18.90;;;;;;;;;;5013163;28;20445;-64
2021/04/21 10:12:59;;;;;;;20.27;17.87;;;;;;;;;;5014082;28;20441;-64
2021/04/21 10:15:31;;;;;;;17.77;16.07;;;;;;;;;;5012757;28;20953;-64
2021/04/21 10:17:58;;;;;;;18.50;16.80;;;;;;;;;;5013721;28;20470;-63
2021/04/21 10:20:24;;;;;;;17.30;15.73;;;;;;;;;;5012687;28;20453;-63
2021/04/21 10:22:52;;;;;;;19.20;17.20;;;;;;;;;;5013729;28;20473;-63
2021/04/21 10:25:18;;;;;;;18.63;16.73;;;;;;;;;;5010086;28;20980;-63
2021/04/21 10:27:45;;;;;;;19.17;17.40;;;;;;;;;;5009551;28;20466;-61
2021/04/21 10:30:13;;;;;;;20.77;18.80;;;;;;;;;;5013285;28;20945;-66
2021/04/21 10:32:40;;;;;;;19.30;17.70;;;;;;;;;;5013928;28;20949;-66
2021/04/21 10:35:08;;;;;;;18.50;16.90;;;;;;;;;;5013913;28;20499;-67
2021/04/21 10:37:35;;;;;;;17.07;15.43;;;;;;;;;;5012528;28;20452;-66
2021/04/21 10:40:01;;;;;;;16.07;14.63;;;;;;;;;;5007084;28;20446;-66
2021/04/21 10:42:28;;;;;;;14.40;13.10;;;;;;;;;;4993658;28;20489;-65
2021/04/21 10:45:13;;;;;;;13.23;12.00;;;;;;;;;;5013250;28;20500;-64
2021/04/21 10:47:45;;;;;;;11.00;10.07;;;;;;;;;;5012445;28;20477;-68
2021/04/21 10:50:13;;;;;;;9.03;8.33;;;;;;;;;;4993828;28;20496;-68
2021/04/21 10:52:40;;;;;;;10.10;9.30;;;;;;;;;;4993666;28;20451;-66
2021/04/21 10:55:25;;;;;;;9.67;8.83;;;;;;;;;;5005301;28;20454;-69
2021/04/21 10:58:00;;;;;;;10.50;8.27;;;;;;;;;;5012299;28;20992;-66
2021/04/21 11:00:28;;;;;;;7.97;7.37;;;;;;;;;;5013095;28;20824;-70
2021/04/21 11:03:03;;;;;;;8.30;7.60;;;;;;;;;;5010545;28;20489;-68
2021/04/21 11:05:40;;;;;;;8.77;7.97;;;;;;;;;;5012688;28;20935;-68
2021/04/21 11:08:08;;;;;;;7.43;6.83;;;;;;;;;;5004449;28;21063;-68
2021/04/21 11:10:36;;;;;;;7.10;6.40;;;;;;;;;;5011320;28;20464;-68
2021/04/21 11:13:03;;;;;;;6.87;6.37;;;;;;;;;;5012487;28;20540;-67
2021/04/21 11:15:36;;;;;;;7.80;5.73;;;;;;;;;;5012601;28;20464;-68
2021/04/21 11:18:22;;;;;;;6.73;4.33;;;;;;;;;;5012259;28;20481;-68
2021/04/21 11:21:00;;;;;;;7.70;4.97;;;;;;;;;;5010480;28;20472;-68
2021/04/21 11:23:45;;;;;;;6.27;4.10;;;;;;;;;;5006140;28;20971;-68
2021/04/21 11:26:31;;;;;;;4.40;3.70;;;;;;;;;;5012585;28;20461;-68
2021/04/21 11:28:58;;;;;;;6.47;4.20;;;;;;;;;;5012090;28;20677;-68
2021/04/21 11:31:55;;;;;;;5.87;3.80;;;;;;;;;;5012372;28;20476;-68
2021/04/21 11:34:27;;;;;;;4.83;4.30;;;;;;;;;;5012114;28;20450;-68
2021/04/21 11:36:54;;;;;;;4.43;3.87;;;;;;;;;;5012064;28;20529;-70
2021/04/21 11:39:35;;;;;;;5.93;4.23;;;;;;;;;;5024268;22;21067;-66
2021/04/21 11:42:15;;;;;;;8.83;4.50;;;;;;;;;;5000152;28;20490;-67
2021/04/21 11:45:00;;;;;;;4.70;3.67;;;;;;;;;;5012036;28;20452;-67
2021/04/21 11:47:47;;;;;;;5.90;3.43;;;;;;;;;;4998037;28;20503;-67
2021/04/21 11:50:25;;;;;;;3.80;2.33;;;;;;;;;;5008114;28;21193;-68
2021/04/21 11:52:54;;;;;;;5.70;3.67;;;;;;;;;;5009955;28;20445;-67
2021/04/21 11:55:25;;;;;;;4.70;3.10;;;;;;;;;;5010360;28;20803;-67
2021/04/21 11:57:52;;;;;;;6.00;3.10;;;;;;;;;;5011164;28;20488;-66
2021/04/21 12:00:21;;;;;;;5.03;2.70;;;;;;;;;;5005571;28;20474;-67
2021/04/21 12:02:47;;;;;;;8.00;3.00;;;;;;;;;;5004131;28;20481;-66
2021/04/21 12:05:14;;;;;;;6.83;2.50;;;;;;;;;;5009916;28;20499;-66
2021/04/21 12:07:46;;;;;;;5.97;2.70;;;;;;;;;;5011093;28;20453;-67
2021/04/21 12:10:14;;;;;;;6.23;2.73;;;;;;;;;;5011272;28;20539;-67
2021/04/21 12:12:40;;;;;;;7.53;2.93;;;;;;;;;;5011056;28;20449;-67
2021/04/21 12:15:08;;;;;;;5.33;2.67;;;;;;;;;;5011869;28;20449;-67
2021/04/21 12:17:35;;;;;;;6.33;3.40;;;;;;;;;;5010025;28;20466;-67
2021/04/21 12:20:01;;;;;;;6.20;2.90;;;;;;;;;;5011606;28;20520;-67
2021/04/21 12:22:41;;;;;;;7.53;2.63;;;;;;;;;;5006463;28;20554;-67
2021/04/21 12:25:09;;;;;;;7.87;2.37;;;;;;;;;;5003595;28;20449;-67
2021/04/21 12:27:36;;;;;;;6.00;2.60;;;;;;;;;;5009278;28;20878;-67
2021/04/21 12:30:10;;;;;;;4.53;2.80;;;;;;;;;;5010955;28;20481;-66
2021/04/21 12:32:36;;;;;;;6.63;2.77;;;;;;;;;;5005442;28;20449;-66
2021/04/21 12:35:04;;;;;;;9.40;2.67;;;;;;;;;;5001277;28;20488;-66
2021/04/21 12:37:30;;;;;;;5.10;2.13;;;;;;;;;;5000501;28;20516;-66
2021/04/21 12:39:57;;;;;;;8.80;2.47;;;;;;;;;;5011090;28;20489;-66
2021/04/21 12:42:25;;;;;;;8.47;3.00;;;;;;;;;;5011336;28;20492;-66
2021/04/21 12:44:51;;;;;;;8.57;3.00;;;;;;;;;;4991988;28;20451;-66
2021/04/21 12:47:18;;;;;;;6.90;2.63;;;;;;;;;;4997996;28;20519;-66
2021/04/21 12:49:46;;;;;;;5.53;2.70;;;;;;;;;;5009587;28;20536;-67
2021/04/21 12:52:14;;;;;;;5.60;2.90;;;;;;;;;;5009344;28;20454;-66
2021/04/21 12:54:42;;;;;;;7.50;3.20;;;;;;;;;;5003667;28;20534;-67
2021/04/21 12:57:10;;;;;;;4.23;2.53;;;;;;;;;;5005587;28;20501;-66
2021/04/21 12:59:44;;;;;;;7.40;3.80;;;;;;;;;;5011254;28;20465;-66
2021/04/21 13:02:12;;;;;;;8.33;2.83;;;;;;;;;;5013543;28;20507;-66
2021/04/21 13:04:40;;;;;;;7.00;3.57;;;;;;;;;;5015343;28;20478;-66
2021/04/21 13:07:16;;;;;;;6.77;3.40;;;;;;;;;;5013583;28;21032;-66
2021/04/21 13:09:44;;;;;;;6.70;3.30;;;;;;;;;;5010052;28;20989;-66
2021/04/21 13:12:12;;;;;;;5.50;3.33;;;;;;;;;;5001937;28;20458;-66
2021/04/21 13:14:39;;;;;;;4.50;2.70;;;;;;;;;;5012898;28;20840;-66
2021/04/21 13:17:07;;;;;;;4.30;2.67;;;;;;;;;;5014441;28;20940;-66
2021/04/21 13:19:34;;;;;;;8.43;3.73;;;;;;;;;;5000323;28;20482;-65
2021/04/21 13:22:02;;;;;;;6.53;3.87;;;;;;;;;;4995499;28;20485;-66
2021/04/21 13:24:29;;;;;;;7.57;3.57;;;;;;;;;;5011685;28;20968;-68
2021/04/21 13:26:57;;;;;;;5.87;3.97;;;;;;;;;;5013916;28;20867;-67
2021/04/21 13:29:33;;;;;;;7.60;4.03;;;;;;;;;;5013203;28;20461;-67
2021/04/21 13:32:07;;;;;;;3.33;2.90;;;;;;;;;;5011614;28;20453;-67
2021/04/21 13:34:34;;;;;;;6.10;3.30;;;;;;;;;;5015625;28;20519;-67
2021/04/21 13:37:01;;;;;;;6.97;3.43;;;;;;;;;;5012980;28;20449;-67
2021/04/21 13:39:27;;;;;;;11.43;4.63;;;;;;;;;;5014223;28;20480;-67
2021/04/21 13:41:54;;;;;;;7.10;3.57;;;;;;;;;;5011919;28;20481;-67
2021/04/21 13:44:21;;;;;;;8.00;4.00;;;;;;;;;;5014381;28;20936;-67
2021/04/21 13:46:47;;;;;;;7.93;4.00;;;;;;;;;;5011147;28;20515;-67
2021/04/21 13:49:16;;;;;;;8.30;4.20;;;;;;;;;;5012931;28;20824;-67
2021/04/21 13:51:43;;;;;;;7.80;3.30;;;;;;;;;;5012029;28;20542;-67
2021/04/21 13:54:10;;;;;;;5.33;3.53;;;;;;;;;;5011150;28;20453;-66
2021/04/21 13:56:37;;;;;;;8.53;3.70;;;;;;;;;;5013659;28;20480;-67
2021/04/21 13:59:04;;;;;;;7.00;3.27;;;;;;;;;;5011627;28;20457;-67
2021/04/21 14:01:31;;;;;;;6.10;3.80;;;;;;;;;;5008352;28;20490;-67
2021/04/21 14:03:58;;;;;;;8.40;3.30;;;;;;;;;;5013155;28;20457;-67
2021/04/21 14:06:25;;;;;;;10.30;3.60;;;;;;;;;;5013058;28;20465;-66
2021/04/21 14:08:52;;;;;;;3.77;3.00;;;;;;;;;;5013533;28;20461;-67
2021/04/21 14:11:19;;;;;;;5.30;3.10;;;;;;;;;;5011750;28;20996;-67
2021/04/21 14:13:46;;;;;;;5.93;3.63;;;;;;;;;;5006379;28;20456;-67
2021/04/21 14:16:12;;;;;;;5.90;3.40;;;;;;;;;;5012830;28;20454;-67
2021/04/21 14:18:39;;;;;;;6.27;3.33;;;;;;;;;;5013278;28;20499;-67
2021/04/21 14:21:06;;;;;;;4.80;3.53;;;;;;;;;;5009623;28;20537;-66
2021/04/21 14:23:33;;;;;;;11.17;4.07;;;;;;;;;;5013308;28;20806;-66
2021/04/21 14:26:00;;;;;;;8.87;3.17;;;;;;;;;;5001838;28;20472;-67
2021/04/21 14:28:26;;;;;;;5.80;3.77;;;;;;;;;;5008740;28;20446;-65
2021/04/21 14:30:53;;;;;;;13.53;3.40;;;;;;;;;;4998126;28;20470;-67
2021/04/21 14:33:20;;;;;;;9.27;2.93;;;;;;;;;;5004510;28;20816;-66
2021/04/21 14:35:46;;;;;;;3.90;2.83;;;;;;;;;;5006688;28;20453;-67
2021/04/21 14:38:13;;;;;;;11.47;3.80;;;;;;;;;;5010933;28;20453;-67
2021/04/21 14:40:41;;;;;;;6.10;2.70;;;;;;;;;;5006664;28;20864;-67
2021/04/21 14:43:07;;;;;;;5.50;2.50;;;;;;;;;;5006197;28;20511;-66
2021/04/21 14:45:34;;;;;;;4.07;2.57;;;;;;;;;;4996306;28;20447;-66
2021/04/21 14:48:01;;;;;;;4.60;2.17;;;;;;;;;;5003700;28;20453;-66
2021/04/21 14:50:27;;;;;;;4.27;2.60;;;;;;;;;;5005446;28;20469;-66
2021/04/21 14:52:54;;;;;;;3.43;2.20;;;;;;;;;;5007365;28;20468;-66